CEB5039 RJGG-RPLL
Flight info
| Callsign | CEB5039 |
|---|---|
| Flight time | N/A |
| Altitude | 38000 |
| Route | KEC Z262 ALUYO Z26 TONAR/N0476F400 Y525 ONC KXC Y62 MJC B462 LAO M646 SANRO/N0470F410 W4 NABAL |
| Aircraft | A339/H-SADE1E2E3GHIJ3J5M1P2RWXY/LB2D1 |
Departure
| Time | 2026-04-30 09:02 |
|---|---|
| Airport | Chubu Centrair International Airport (RJGG) |
Arrival
| Time | N/A |
|---|---|
| Airport | Ninoy Aquino International Airport (RPLL) |
| Time | Latitude | Longitude | Altitude | Speed | Heading |
|---|---|---|---|---|---|
| 2026-04-30 09:02 | 34.87015 | 136.77029 | 2207 ft | 176 kts | 213° |
| 2026-04-30 09:02 | 34.85876 | 136.76386 | 2457 ft | 191 kts | 204° |
| 2026-04-30 09:02 | 34.84577 | 136.75716 | 2605 ft | 211 kts | 206° |
| 2026-04-30 09:03 | 34.83165 | 136.74968 | 2733 ft | 233 kts | 204° |
| 2026-04-30 09:03 | 34.81582 | 136.74229 | 2865 ft | 255 kts | 200° |
| 2026-04-30 09:03 | 34.79842 | 136.73555 | 2986 ft | 264 kts | 196° |
| 2026-04-30 09:03 | 34.78020 | 136.73024 | 3201 ft | 280 kts | 192° |
| 2026-04-30 09:04 | 34.76095 | 136.72588 | 3857 ft | 281 kts | 191° |
| 2026-04-30 09:04 | 34.74182 | 136.72145 | 4562 ft | 279 kts | 192° |
| 2026-04-30 09:04 | 34.72279 | 136.71693 | 5193 ft | 283 kts | 192° |
| 2026-04-30 09:04 | 34.70336 | 136.71222 | 5857 ft | 285 kts | 192° |
| 2026-04-30 09:05 | 34.68399 | 136.70752 | 6494 ft | 286 kts | 192° |
| 2026-04-30 09:05 | 34.66447 | 136.70274 | 7122 ft | 290 kts | 192° |
| 2026-04-30 09:05 | 34.64467 | 136.69788 | 7799 ft | 292 kts | 193° |
| 2026-04-30 09:05 | 34.62492 | 136.69295 | 8442 ft | 294 kts | 193° |
| 2026-04-30 09:06 | 34.60468 | 136.68791 | 9061 ft | 298 kts | 193° |
| 2026-04-30 09:06 | 34.58429 | 136.68282 | 9734 ft | 299 kts | 193° |
| 2026-04-30 09:06 | 34.56371 | 136.67769 | 10323 ft | 307 kts | 192° |
| 2026-04-30 09:06 | 34.54235 | 136.67244 | 10673 ft | 324 kts | 192° |
| 2026-04-30 09:07 | 34.51962 | 136.66689 | 10979 ft | 342 kts | 193° |
| 2026-04-30 09:07 | 34.49577 | 136.66100 | 11282 ft | 360 kts | 192° |
| 2026-04-30 09:07 | 34.47065 | 136.65486 | 11572 ft | 377 kts | 193° |
| 2026-04-30 09:07 | 34.44456 | 136.64845 | 11952 ft | 391 kts | 192° |
| 2026-04-30 09:08 | 34.41766 | 136.64185 | 12613 ft | 396 kts | 192° |
| 2026-04-30 09:08 | 34.39084 | 136.63527 | 13346 ft | 398 kts | 192° |
| 2026-04-30 09:08 | 34.36350 | 136.62860 | 14074 ft | 402 kts | 192° |
| 2026-04-30 09:08 | 34.33606 | 136.62186 | 14772 ft | 405 kts | 192° |
| 2026-04-30 09:09 | 34.30829 | 136.61507 | 15471 ft | 408 kts | 192° |
| 2026-04-30 09:09 | 34.28026 | 136.60822 | 16157 ft | 413 kts | 192° |
| 2026-04-30 09:09 | 34.25212 | 136.60135 | 16863 ft | 417 kts | 192° |
| 2026-04-30 09:09 | 34.22359 | 136.59431 | 17573 ft | 421 kts | 194° |
| 2026-04-30 09:10 | 34.19586 | 136.58333 | 18249 ft | 425 kts | 205° |
| 2026-04-30 09:10 | 34.16993 | 136.56584 | 18951 ft | 427 kts | 216° |
| 2026-04-30 09:10 | 34.14704 | 136.54336 | 19630 ft | 430 kts | 223° |
| 2026-04-30 09:10 | 34.12455 | 136.51900 | 20290 ft | 434 kts | 223° |
| 2026-04-30 09:11 | 34.10240 | 136.49471 | 20912 ft | 438 kts | 223° |
| 2026-04-30 09:11 | 34.07953 | 136.46970 | 21531 ft | 442 kts | 223° |
| 2026-04-30 09:11 | 34.05676 | 136.44492 | 22125 ft | 445 kts | 223° |
| 2026-04-30 09:11 | 34.03351 | 136.41972 | 22707 ft | 449 kts | 223° |
| 2026-04-30 09:12 | 34.01032 | 136.39468 | 23264 ft | 452 kts | 223° |
| 2026-04-30 09:12 | 33.98683 | 136.36935 | 23808 ft | 456 kts | 223° |
| 2026-04-30 09:12 | 33.96320 | 136.34393 | 24337 ft | 459 kts | 222° |
| 2026-04-30 09:12 | 33.93949 | 136.31844 | 24829 ft | 463 kts | 222° |
| 2026-04-30 09:13 | 33.91539 | 136.29254 | 25306 ft | 466 kts | 222° |
| 2026-04-30 09:13 | 33.89096 | 136.26633 | 25778 ft | 469 kts | 222° |
| 2026-04-30 09:13 | 33.86651 | 136.24011 | 26229 ft | 472 kts | 222° |
| 2026-04-30 09:13 | 33.84219 | 136.21407 | 26660 ft | 475 kts | 222° |
| 2026-04-30 09:14 | 33.81747 | 136.18753 | 27082 ft | 478 kts | 222° |
| 2026-04-30 09:14 | 33.79236 | 136.16075 | 27496 ft | 481 kts | 222° |
| 2026-04-30 09:14 | 33.76733 | 136.13405 | 27902 ft | 483 kts | 222° |
| 2026-04-30 09:14 | 33.74224 | 136.10728 | 28299 ft | 486 kts | 223° |
| 2026-04-30 09:15 | 33.71727 | 136.08058 | 28799 ft | 485 kts | 223° |
| 2026-04-30 09:15 | 33.69199 | 136.05350 | 29414 ft | 483 kts | 222° |
| 2026-04-30 09:15 | 33.66727 | 136.02722 | 29993 ft | 480 kts | 222° |
| 2026-04-30 09:15 | 33.64204 | 136.00050 | 30519 ft | 479 kts | 223° |
| 2026-04-30 09:16 | 33.61720 | 135.97400 | 31032 ft | 478 kts | 222° |
| 2026-04-30 09:16 | 33.59258 | 135.94785 | 31521 ft | 477 kts | 222° |
| 2026-04-30 09:16 | 33.56788 | 135.92163 | 32017 ft | 475 kts | 223° |
| 2026-04-30 09:16 | 33.54314 | 135.89535 | 32481 ft | 474 kts | 223° |
| 2026-04-30 09:17 | 33.51849 | 135.86920 | 32940 ft | 473 kts | 223° |
| 2026-04-30 09:17 | 33.49388 | 135.84311 | 33402 ft | 472 kts | 222° |
| 2026-04-30 09:17 | 33.46964 | 135.81746 | 33858 ft | 471 kts | 222° |
| 2026-04-30 09:17 | 33.44490 | 135.79132 | 34312 ft | 470 kts | 222° |
| 2026-04-30 09:18 | 33.42016 | 135.76614 | 34744 ft | 469 kts | 221° |
| 2026-04-30 09:18 | 33.39516 | 135.74130 | 35171 ft | 468 kts | 220° |
| 2026-04-30 09:18 | 33.37013 | 135.71655 | 35585 ft | 467 kts | 220° |
| 2026-04-30 09:18 | 33.34526 | 135.69196 | 35978 ft | 466 kts | 220° |
| 2026-04-30 09:19 | 33.32039 | 135.66733 | 36326 ft | 465 kts | 221° |
| 2026-04-30 09:19 | 33.29578 | 135.64291 | 36575 ft | 467 kts | 221° |
| 2026-04-30 09:19 | 33.27060 | 135.61793 | 36800 ft | 468 kts | 221° |
| 2026-04-30 09:19 | 33.24565 | 135.59319 | 37022 ft | 470 kts | 221° |
| 2026-04-30 09:20 | 33.22045 | 135.56821 | 37251 ft | 471 kts | 221° |
| 2026-04-30 09:20 | 33.19535 | 135.54334 | 37473 ft | 473 kts | 221° |
| 2026-04-30 09:20 | 33.17001 | 135.51825 | 37684 ft | 474 kts | 221° |
| 2026-04-30 09:20 | 33.14463 | 135.49313 | 37761 ft | 476 kts | 221° |
| 2026-04-30 09:21 | 33.09365 | 135.44276 | 37768 ft | 476 kts | 221° |
| 2026-04-30 09:21 | 33.04259 | 135.39239 | 37769 ft | 476 kts | 221° |
| 2026-04-30 09:22 | 32.99163 | 135.34218 | 37770 ft | 476 kts | 220° |
| 2026-04-30 09:22 | 32.94070 | 135.29207 | 37769 ft | 476 kts | 220° |
| 2026-04-30 09:23 | 32.88951 | 135.24181 | 37769 ft | 476 kts | 220° |
| 2026-04-30 09:23 | 32.83837 | 135.19165 | 37769 ft | 476 kts | 220° |
| 2026-04-30 09:24 | 32.78759 | 135.14192 | 37769 ft | 476 kts | 221° |
| 2026-04-30 09:24 | 32.73868 | 135.08865 | 37769 ft | 476 kts | 225° |
| 2026-04-30 09:25 | 32.69192 | 135.03375 | 37769 ft | 476 kts | 225° |
| 2026-04-30 09:25 | 32.64491 | 134.97858 | 37769 ft | 476 kts | 225° |
| 2026-04-30 09:26 | 32.59781 | 134.92343 | 37769 ft | 476 kts | 225° |
| 2026-04-30 09:26 | 32.55088 | 134.86859 | 37769 ft | 476 kts | 225° |
| 2026-04-30 09:27 | 32.50373 | 134.81358 | 37769 ft | 476 kts | 225° |
| 2026-04-30 09:27 | 32.45672 | 134.75882 | 37769 ft | 476 kts | 225° |
| 2026-04-30 09:28 | 32.40957 | 134.70398 | 37769 ft | 476 kts | 225° |
| 2026-04-30 09:28 | 32.36240 | 134.64920 | 37769 ft | 476 kts | 225° |
| 2026-04-30 09:29 | 32.31522 | 134.59448 | 37769 ft | 476 kts | 225° |
| 2026-04-30 09:29 | 32.26805 | 134.53987 | 37769 ft | 476 kts | 225° |
| 2026-04-30 09:30 | 32.22110 | 134.48560 | 37769 ft | 476 kts | 225° |
| 2026-04-30 09:30 | 32.17389 | 134.43114 | 37769 ft | 476 kts | 225° |
| 2026-04-30 09:31 | 32.12639 | 134.37636 | 37769 ft | 476 kts | 225° |
| 2026-04-30 09:31 | 32.07932 | 134.32219 | 37769 ft | 476 kts | 225° |
| 2026-04-30 09:32 | 32.03193 | 134.26773 | 37769 ft | 476 kts | 225° |
| 2026-04-30 09:32 | 31.98457 | 134.21339 | 37769 ft | 476 kts | 225° |
| 2026-04-30 09:33 | 31.93718 | 134.15912 | 37769 ft | 476 kts | 225° |
| 2026-04-30 09:33 | 31.88972 | 134.10484 | 37769 ft | 476 kts | 225° |
| 2026-04-30 09:34 | 31.84260 | 134.05103 | 37769 ft | 476 kts | 225° |
| 2026-04-30 09:34 | 31.79518 | 133.99696 | 37769 ft | 476 kts | 225° |
| 2026-04-30 09:35 | 31.74769 | 133.94289 | 37769 ft | 476 kts | 225° |
| 2026-04-30 09:35 | 31.70014 | 133.88884 | 37770 ft | 476 kts | 225° |
| 2026-04-30 09:36 | 31.65276 | 133.83507 | 37769 ft | 476 kts | 225° |
| 2026-04-30 09:36 | 31.60517 | 133.78110 | 37769 ft | 476 kts | 225° |
| 2026-04-30 09:37 | 31.55785 | 133.72755 | 37769 ft | 476 kts | 225° |
| 2026-04-30 09:37 | 31.51009 | 133.67360 | 37769 ft | 476 kts | 225° |
| 2026-04-30 09:38 | 31.46278 | 133.62022 | 37769 ft | 476 kts | 225° |
| 2026-04-30 09:38 | 31.41519 | 133.56659 | 37769 ft | 476 kts | 225° |
| 2026-04-30 09:39 | 31.36731 | 133.51273 | 37769 ft | 476 kts | 225° |
| 2026-04-30 09:39 | 31.31967 | 133.45923 | 37769 ft | 476 kts | 225° |
| 2026-04-30 09:40 | 31.27222 | 133.40601 | 37769 ft | 476 kts | 225° |
| 2026-04-30 09:40 | 31.22459 | 133.35265 | 37769 ft | 476 kts | 225° |
| 2026-04-30 09:41 | 31.17647 | 133.29881 | 37769 ft | 476 kts | 224° |
| 2026-04-30 09:41 | 31.12891 | 133.24579 | 37769 ft | 476 kts | 224° |
| 2026-04-30 09:42 | 31.08108 | 133.19251 | 37769 ft | 476 kts | 224° |
| 2026-04-30 09:42 | 31.03313 | 133.13913 | 37769 ft | 476 kts | 224° |
| 2026-04-30 09:43 | 30.98548 | 133.08615 | 37769 ft | 476 kts | 224° |
| 2026-04-30 09:43 | 30.93777 | 133.03319 | 37769 ft | 476 kts | 224° |
| 2026-04-30 09:44 | 30.88963 | 132.97981 | 37769 ft | 476 kts | 224° |
| 2026-04-30 09:44 | 30.84193 | 132.92700 | 37769 ft | 476 kts | 224° |
| 2026-04-30 09:45 | 30.79415 | 132.87419 | 37769 ft | 476 kts | 224° |
| 2026-04-30 09:45 | 30.74613 | 132.82118 | 37769 ft | 476 kts | 224° |
| 2026-04-30 09:46 | 30.69803 | 132.76817 | 37769 ft | 476 kts | 224° |
| 2026-04-30 09:46 | 30.65017 | 132.71552 | 37769 ft | 476 kts | 224° |
| 2026-04-30 09:47 | 30.60235 | 132.66295 | 37769 ft | 476 kts | 224° |
| 2026-04-30 09:47 | 30.55435 | 132.61028 | 37769 ft | 476 kts | 224° |
| 2026-04-30 09:48 | 30.50605 | 132.55736 | 37769 ft | 476 kts | 224° |
| 2026-04-30 09:48 | 30.45801 | 132.50476 | 37769 ft | 476 kts | 224° |
| 2026-04-30 09:49 | 30.41016 | 132.45247 | 37769 ft | 476 kts | 224° |
| 2026-04-30 09:49 | 30.36186 | 132.39977 | 37770 ft | 476 kts | 224° |
| 2026-04-30 09:50 | 30.31379 | 132.34738 | 37769 ft | 476 kts | 224° |
| 2026-04-30 09:50 | 30.26558 | 132.29492 | 37770 ft | 476 kts | 224° |
| 2026-04-30 09:51 | 30.21758 | 132.24277 | 37770 ft | 476 kts | 224° |
| 2026-04-30 09:51 | 30.16956 | 132.19067 | 37769 ft | 476 kts | 224° |
| 2026-04-30 09:52 | 30.12105 | 132.13808 | 37770 ft | 476 kts | 224° |
| 2026-04-30 09:52 | 30.07310 | 132.08618 | 37770 ft | 476 kts | 224° |
| 2026-04-30 09:53 | 30.02464 | 132.03381 | 37770 ft | 476 kts | 224° |
| 2026-04-30 09:53 | 29.97632 | 131.98167 | 37770 ft | 476 kts | 224° |
| 2026-04-30 09:54 | 29.92804 | 131.92964 | 37770 ft | 476 kts | 224° |
| 2026-04-30 09:54 | 29.87976 | 131.87767 | 37769 ft | 476 kts | 224° |
| 2026-04-30 09:55 | 29.83175 | 131.82573 | 37769 ft | 476 kts | 225° |
| 2026-04-30 09:55 | 29.78719 | 131.76996 | 37770 ft | 475 kts | 231° |
| 2026-04-30 09:56 | 29.74443 | 131.71205 | 37770 ft | 475 kts | 231° |
| 2026-04-30 09:56 | 29.70167 | 131.65418 | 37770 ft | 475 kts | 231° |
| 2026-04-30 09:57 | 29.65897 | 131.59648 | 37769 ft | 475 kts | 231° |
| 2026-04-30 09:57 | 29.61613 | 131.53873 | 37769 ft | 475 kts | 231° |
| 2026-04-30 09:58 | 29.57331 | 131.48109 | 37769 ft | 475 kts | 231° |
| 2026-04-30 09:58 | 29.53061 | 131.42371 | 37769 ft | 475 kts | 231° |
| 2026-04-30 09:59 | 29.44479 | 131.30861 | 37769 ft | 475 kts | 230° |
| 2026-04-30 10:00 | 29.38025 | 131.22226 | 37769 ft | 475 kts | 230° |
| 2026-04-30 10:01 | 29.31585 | 131.13629 | 37769 ft | 475 kts | 230° |
| 2026-04-30 10:02 | 29.25118 | 131.05014 | 37769 ft | 475 kts | 230° |
| 2026-04-30 10:02 | 29.20814 | 130.99291 | 37769 ft | 475 kts | 230° |
| 2026-04-30 10:03 | 29.16516 | 130.93582 | 37769 ft | 475 kts | 230° |
| 2026-04-30 10:03 | 29.12215 | 130.87880 | 37769 ft | 475 kts | 230° |
| 2026-04-30 10:04 | 29.07917 | 130.82187 | 37769 ft | 475 kts | 230° |
| 2026-04-30 10:04 | 29.03582 | 130.76456 | 37769 ft | 475 kts | 230° |
| 2026-04-30 10:05 | 28.99273 | 130.70764 | 37769 ft | 475 kts | 230° |
| 2026-04-30 10:05 | 28.94970 | 130.65089 | 37769 ft | 475 kts | 230° |
| 2026-04-30 10:06 | 28.90641 | 130.59389 | 37769 ft | 475 kts | 230° |
| 2026-04-30 10:06 | 28.86329 | 130.53719 | 37769 ft | 475 kts | 230° |
| 2026-04-30 10:07 | 28.81985 | 130.48015 | 37769 ft | 475 kts | 230° |
| 2026-04-30 10:07 | 28.77659 | 130.42342 | 37768 ft | 474 kts | 230° |
| 2026-04-30 10:08 | 28.73350 | 130.36696 | 37768 ft | 475 kts | 230° |
| 2026-04-30 10:08 | 28.69022 | 130.31033 | 37769 ft | 475 kts | 230° |
| 2026-04-30 10:09 | 28.64688 | 130.25371 | 37768 ft | 475 kts | 230° |
| 2026-04-30 10:09 | 28.60341 | 130.19704 | 37768 ft | 475 kts | 230° |
| 2026-04-30 10:10 | 28.56002 | 130.14052 | 37768 ft | 475 kts | 230° |
| 2026-04-30 10:10 | 28.51661 | 130.08405 | 37768 ft | 475 kts | 230° |
| 2026-04-30 10:11 | 28.47327 | 130.02774 | 37768 ft | 475 kts | 230° |
| 2026-04-30 10:11 | 28.42985 | 129.97142 | 37768 ft | 475 kts | 230° |
| 2026-04-30 10:12 | 28.38617 | 129.91484 | 37768 ft | 475 kts | 230° |
| 2026-04-30 10:12 | 28.34270 | 129.85861 | 37768 ft | 475 kts | 230° |
| 2026-04-30 10:13 | 28.29917 | 129.80237 | 37769 ft | 475 kts | 230° |
| 2026-04-30 10:13 | 28.25575 | 129.74635 | 37769 ft | 475 kts | 230° |
| 2026-04-30 10:14 | 28.21217 | 129.69020 | 37769 ft | 475 kts | 230° |
| 2026-04-30 10:14 | 28.14653 | 129.60576 | 37769 ft | 475 kts | 230° |
| 2026-04-30 10:15 | 28.10294 | 129.54980 | 37769 ft | 475 kts | 230° |
| 2026-04-30 10:15 | 28.05909 | 129.49356 | 37769 ft | 475 kts | 230° |
| 2026-04-30 10:16 | 28.01556 | 129.43780 | 37769 ft | 475 kts | 230° |
| 2026-04-30 10:17 | 27.94993 | 129.35390 | 37769 ft | 475 kts | 230° |
| 2026-04-30 10:17 | 27.88441 | 129.27028 | 37768 ft | 475 kts | 229° |
| 2026-04-30 10:18 | 27.84049 | 129.21433 | 37769 ft | 475 kts | 229° |
| 2026-04-30 10:19 | 27.77474 | 129.13066 | 37775 ft | 475 kts | 229° |
| 2026-04-30 10:19 | 27.73109 | 129.07526 | 37780 ft | 475 kts | 229° |
| 2026-04-30 10:20 | 27.68691 | 129.01926 | 37783 ft | 475 kts | 229° |
| 2026-04-30 10:20 | 27.62100 | 128.93588 | 37780 ft | 475 kts | 229° |
| 2026-04-30 10:21 | 27.57733 | 128.88072 | 37775 ft | 475 kts | 229° |
| 2026-04-30 10:21 | 27.53317 | 128.82501 | 37771 ft | 475 kts | 229° |
| 2026-04-30 10:22 | 27.48910 | 128.76953 | 37769 ft | 475 kts | 229° |
| 2026-04-30 10:22 | 27.44646 | 128.71353 | 37769 ft | 475 kts | 233° |
| 2026-04-30 10:23 | 27.40849 | 128.65242 | 37769 ft | 474 kts | 239° |
| 2026-04-30 10:23 | 27.37507 | 128.58920 | 37768 ft | 474 kts | 240° |
| 2026-04-30 10:24 | 27.34158 | 128.52536 | 37768 ft | 474 kts | 240° |
| 2026-04-30 10:24 | 27.30811 | 128.46178 | 37769 ft | 474 kts | 240° |
| 2026-04-30 10:25 | 27.27449 | 128.39806 | 37768 ft | 474 kts | 240° |
| 2026-04-30 10:25 | 27.24080 | 128.33432 | 37769 ft | 474 kts | 240° |
| 2026-04-30 10:26 | 27.20718 | 128.27083 | 37768 ft | 474 kts | 240° |
| 2026-04-30 10:26 | 27.17368 | 128.20764 | 37767 ft | 474 kts | 240° |
| 2026-04-30 10:27 | 27.13996 | 128.14415 | 37767 ft | 474 kts | 240° |
| 2026-04-30 10:27 | 27.10626 | 128.08077 | 37767 ft | 474 kts | 240° |
| 2026-04-30 10:28 | 27.07241 | 128.01721 | 37767 ft | 474 kts | 240° |
| 2026-04-30 10:28 | 27.03856 | 127.95377 | 37767 ft | 474 kts | 240° |
| 2026-04-30 10:29 | 27.00481 | 127.89055 | 37767 ft | 474 kts | 240° |
| 2026-04-30 10:29 | 26.97100 | 127.82731 | 37768 ft | 474 kts | 240° |
| 2026-04-30 10:30 | 26.93711 | 127.76403 | 37769 ft | 474 kts | 240° |
| 2026-04-30 10:30 | 26.90322 | 127.70085 | 37769 ft | 474 kts | 240° |
| 2026-04-30 10:31 | 26.86919 | 127.63747 | 37769 ft | 474 kts | 240° |
| 2026-04-30 10:31 | 26.83542 | 127.57469 | 37769 ft | 474 kts | 240° |
| 2026-04-30 10:32 | 26.80129 | 127.51134 | 37769 ft | 474 kts | 240° |
| 2026-04-30 10:32 | 26.76737 | 127.44844 | 37769 ft | 474 kts | 240° |
| 2026-04-30 10:33 | 26.73338 | 127.38555 | 37769 ft | 474 kts | 240° |
| 2026-04-30 10:33 | 26.69938 | 127.32270 | 37769 ft | 474 kts | 240° |
| 2026-04-30 10:34 | 26.66526 | 127.25972 | 37769 ft | 474 kts | 240° |
| 2026-04-30 10:34 | 26.63112 | 127.19682 | 37769 ft | 474 kts | 240° |